sensor_id;sensor_type;location;lat;lon;timestamp;P1;durP1;ratioP1;P2;durP2;ratioP2
13244;SDS011;6689;53.400;12.486;2023-09-19T00:00:34;6.68;;;3.80;;
13244;SDS011;6689;53.400;12.486;2023-09-19T00:03:01;7.70;;;3.70;;
13244;SDS011;6689;53.400;12.486;2023-09-19T00:05:30;11.30;;;4.65;;
13244;SDS011;6689;53.400;12.486;2023-09-19T00:08:01;6.43;;;4.00;;
13244;SDS011;6689;53.400;12.486;2023-09-19T00:10:30;9.13;;;4.57;;
13244;SDS011;6689;53.400;12.486;2023-09-19T00:13:02;6.15;;;4.00;;
13244;SDS011;6689;53.400;12.486;2023-09-19T00:15:35;5.47;;;3.75;;
13244;SDS011;6689;53.400;12.486;2023-09-19T00:18:04;6.35;;;3.95;;
13244;SDS011;6689;53.400;12.486;2023-09-19T00:20:32;6.05;;;3.60;;
13244;SDS011;6689;53.400;12.486;2023-09-19T00:23:00;7.88;;;3.92;;
13244;SDS011;6689;53.400;12.486;2023-09-19T00:25:33;8.32;;;3.55;;
13244;SDS011;6689;53.400;12.486;2023-09-19T00:28:05;6.68;;;4.03;;
13244;SDS011;6689;53.400;12.486;2023-09-19T00:30:33;9.25;;;3.80;;
13244;SDS011;6689;53.400;12.486;2023-09-19T00:33:00;5.88;;;3.40;;
13244;SDS011;6689;53.400;12.486;2023-09-19T00:35:31;7.43;;;3.40;;
13244;SDS011;6689;53.400;12.486;2023-09-19T00:37:59;5.60;;;3.10;;
13244;SDS011;6689;53.400;12.486;2023-09-19T00:40:26;5.00;;;3.13;;
13244;SDS011;6689;53.400;12.486;2023-09-19T00:42:57;4.82;;;3.10;;
13244;SDS011;6689;53.400;12.486;2023-09-19T00:45:29;7.63;;;3.65;;
13244;SDS011;6689;53.400;12.486;2023-09-19T00:47:56;8.60;;;3.50;;
13244;SDS011;6689;53.400;12.486;2023-09-19T00:50:28;7.70;;;3.60;;
13244;SDS011;6689;53.400;12.486;2023-09-19T00:52:59;7.50;;;3.72;;
13244;SDS011;6689;53.400;12.486;2023-09-19T00:55:26;10.48;;;3.42;;
13244;SDS011;6689;53.400;12.486;2023-09-19T00:57:57;6.93;;;2.97;;
13244;SDS011;6689;53.400;12.486;2023-09-19T01:00:25;5.95;;;3.00;;
13244;SDS011;6689;53.400;12.486;2023-09-19T01:02:57;7.07;;;2.65;;
13244;SDS011;6689;53.400;12.486;2023-09-19T01:05:26;5.65;;;3.42;;
13244;SDS011;6689;53.400;12.486;2023-09-19T01:07:55;7.32;;;3.75;;
13244;SDS011;6689;53.400;12.486;2023-09-19T01:10:22;5.47;;;3.10;;
13244;SDS011;6689;53.400;12.486;2023-09-19T01:12:53;4.75;;;2.92;;
13244;SDS011;6689;53.400;12.486;2023-09-19T01:15:40;3.53;;;2.30;;
13244;SDS011;6689;53.400;12.486;2023-09-19T01:18:27;4.72;;;2.30;;
13244;SDS011;6689;53.400;12.486;2023-09-19T01:21:04;3.40;;;2.00;;
13244;SDS011;6689;53.400;12.486;2023-09-19T01:23:42;5.25;;;2.67;;
13244;SDS011;6689;53.400;12.486;2023-09-19T01:26:43;5.05;;;2.65;;
13244;SDS011;6689;53.400;12.486;2023-09-19T01:29:34;4.10;;;2.35;;
13244;SDS011;6689;53.400;12.486;2023-09-19T01:32:08;6.45;;;2.40;;
13244;SDS011;6689;53.400;12.486;2023-09-19T01:34:44;6.90;;;2.40;;
13244;SDS011;6689;53.400;12.486;2023-09-19T01:37:14;4.45;;;2.35;;
13244;SDS011;6689;53.400;12.486;2023-09-19T01:39:45;4.78;;;2.80;;
13244;SDS011;6689;53.400;12.486;2023-09-19T01:42:18;6.50;;;2.53;;
13244;SDS011;6689;53.400;12.486;2023-09-19T01:44:59;5.60;;;2.72;;
13244;SDS011;6689;53.400;12.486;2023-09-19T01:47:35;3.45;;;2.25;;
13244;SDS011;6689;53.400;12.486;2023-09-19T01:50:12;4.70;;;2.10;;
13244;SDS011;6689;53.400;12.486;2023-09-19T01:52:46;4.00;;;1.83;;
13244;SDS011;6689;53.400;12.486;2023-09-19T01:55:15;4.03;;;2.35;;
13244;SDS011;6689;53.400;12.486;2023-09-19T01:57:48;5.20;;;1.90;;
13244;SDS011;6689;53.400;12.486;2023-09-19T02:00:21;4.20;;;2.17;;
13244;SDS011;6689;53.400;12.486;2023-09-19T02:02:52;2.80;;;1.83;;
13244;SDS011;6689;53.400;12.486;2023-09-19T02:05:23;4.18;;;2.05;;
13244;SDS011;6689;53.400;12.486;2023-09-19T02:07:52;5.30;;;2.47;;
13244;SDS011;6689;53.400;12.486;2023-09-19T02:10:21;3.50;;;1.70;;
13244;SDS011;6689;53.400;12.486;2023-09-19T02:12:49;5.97;;;2.05;;
13244;SDS011;6689;53.400;12.486;2023-09-19T02:15:17;4.57;;;1.75;;
13244;SDS011;6689;53.400;12.486;2023-09-19T02:17:44;2.90;;;2.00;;
13244;SDS011;6689;53.400;12.486;2023-09-19T02:20:14;3.15;;;1.90;;
13244;SDS011;6689;53.400;12.486;2023-09-19T02:22:42;5.35;;;1.85;;
13244;SDS011;6689;53.400;12.486;2023-09-19T02:25:09;2.72;;;2.22;;
13244;SDS011;6689;53.400;12.486;2023-09-19T02:27:39;3.88;;;1.80;;
13244;SDS011;6689;53.400;12.486;2023-09-19T02:30:07;4.10;;;1.90;;
13244;SDS011;6689;53.400;12.486;2023-09-19T02:32:34;4.78;;;1.73;;
13244;SDS011;6689;53.400;12.486;2023-09-19T02:35:05;5.68;;;1.60;;
13244;SDS011;6689;53.400;12.486;2023-09-19T02:37:37;3.22;;;1.33;;
13244;SDS011;6689;53.400;12.486;2023-09-19T02:40:05;4.43;;;1.50;;
13244;SDS011;6689;53.400;12.486;2023-09-19T02:42:44;2.95;;;1.70;;
13244;SDS011;6689;53.400;12.486;2023-09-19T02:45:17;3.47;;;1.35;;
13244;SDS011;6689;53.400;12.486;2023-09-19T02:47:44;3.53;;;1.63;;
13244;SDS011;6689;53.400;12.486;2023-09-19T02:50:12;3.60;;;1.65;;
13244;SDS011;6689;53.400;12.486;2023-09-19T02:52:42;2.88;;;1.50;;
13244;SDS011;6689;53.400;12.486;2023-09-19T02:55:10;3.83;;;1.40;;
13244;SDS011;6689;53.400;12.486;2023-09-19T02:57:38;3.28;;;1.75;;
13244;SDS011;6689;53.400;12.486;2023-09-19T03:00:08;4.82;;;1.65;;
13244;SDS011;6689;53.400;12.486;2023-09-19T03:02:37;2.33;;;1.58;;
13244;SDS011;6689;53.400;12.486;2023-09-19T03:05:06;4.22;;;1.38;;
13244;SDS011;6689;53.400;12.486;2023-09-19T03:07:37;4.05;;;1.63;;
13244;SDS011;6689;53.400;12.486;2023-09-19T03:10:07;6.10;;;2.08;;
13244;SDS011;6689;53.400;12.486;2023-09-19T03:12:35;5.53;;;2.40;;
13244;SDS011;6689;53.400;12.486;2023-09-19T03:15:05;2.08;;;1.60;;
13244;SDS011;6689;53.400;12.486;2023-09-19T03:17:34;4.05;;;1.48;;
13244;SDS011;6689;53.400;12.486;2023-09-19T03:20:02;3.72;;;2.13;;
13244;SDS011;6689;53.400;12.486;2023-09-19T03:22:33;2.92;;;1.70;;
13244;SDS011;6689;53.400;12.486;2023-09-19T03:25:01;5.10;;;2.30;;
13244;SDS011;6689;53.400;12.486;2023-09-19T03:27:34;4.60;;;2.13;;
13244;SDS011;6689;53.400;12.486;2023-09-19T03:30:02;3.67;;;2.22;;
13244;SDS011;6689;53.400;12.486;2023-09-19T03:32:33;5.40;;;2.05;;
13244;SDS011;6689;53.400;12.486;2023-09-19T03:35:01;3.70;;;1.90;;
13244;SDS011;6689;53.400;12.486;2023-09-19T03:37:30;4.60;;;2.03;;
13244;SDS011;6689;53.400;12.486;2023-09-19T03:39:58;4.40;;;1.92;;
13244;SDS011;6689;53.400;12.486;2023-09-19T03:42:30;6.10;;;2.10;;
13244;SDS011;6689;53.400;12.486;2023-09-19T03:45:01;2.78;;;1.80;;
13244;SDS011;6689;53.400;12.486;2023-09-19T03:47:29;3.95;;;2.05;;
13244;SDS011;6689;53.400;12.486;2023-09-19T03:49:56;2.85;;;1.80;;
13244;SDS011;6689;53.400;12.486;2023-09-19T03:52:23;3.38;;;2.13;;
13244;SDS011;6689;53.400;12.486;2023-09-19T03:54:51;5.22;;;2.53;;
13244;SDS011;6689;53.400;12.486;2023-09-19T03:57:19;3.67;;;2.63;;
13244;SDS011;6689;53.400;12.486;2023-09-19T03:59:47;3.80;;;1.92;;
13244;SDS011;6689;53.400;12.486;2023-09-19T04:02:15;2.80;;;2.10;;
13244;SDS011;6689;53.400;12.486;2023-09-19T04:04:48;9.13;;;2.70;;
13244;SDS011;6689;53.400;12.486;2023-09-19T04:07:16;4.15;;;2.13;;
13244;SDS011;6689;53.400;12.486;2023-09-19T04:09:44;3.88;;;1.92;;
13244;SDS011;6689;53.400;12.486;2023-09-19T04:12:11;4.78;;;2.28;;
13244;SDS011;6689;53.400;12.486;2023-09-19T04:14:38;9.02;;;2.20;;
13244;SDS011;6689;53.400;12.486;2023-09-19T04:17:05;7.43;;;2.70;;
13244;SDS011;6689;53.400;12.486;2023-09-19T04:19:34;4.65;;;2.20;;
13244;SDS011;6689;53.400;12.486;2023-09-19T04:22:01;3.35;;;2.58;;
13244;SDS011;6689;53.400;12.486;2023-09-19T04:24:30;4.50;;;2.90;;
13244;SDS011;6689;53.400;12.486;2023-09-19T04:26:58;6.00;;;2.65;;
13244;SDS011;6689;53.400;12.486;2023-09-19T04:29:25;6.07;;;2.63;;
13244;SDS011;6689;53.400;12.486;2023-09-19T04:31:54;6.20;;;2.90;;
13244;SDS011;6689;53.400;12.486;2023-09-19T04:34:23;4.47;;;2.58;;
13244;SDS011;6689;53.400;12.486;2023-09-19T04:36:52;3.08;;;2.65;;
13244;SDS011;6689;53.400;12.486;2023-09-19T04:39:19;5.43;;;2.92;;
13244;SDS011;6689;53.400;12.486;2023-09-19T04:41:50;7.10;;;2.50;;
13244;SDS011;6689;53.400;12.486;2023-09-19T04:44:18;5.05;;;3.15;;
13244;SDS011;6689;53.400;12.486;2023-09-19T04:46:46;7.32;;;3.10;;
13244;SDS011;6689;53.400;12.486;2023-09-19T04:49:13;5.22;;;2.83;;
13244;SDS011;6689;53.400;12.486;2023-09-19T04:51:40;4.32;;;2.55;;
13244;SDS011;6689;53.400;12.486;2023-09-19T04:54:09;4.90;;;2.50;;
13244;SDS011;6689;53.400;12.486;2023-09-19T04:56:36;6.45;;;3.03;;
13244;SDS011;6689;53.400;12.486;2023-09-19T04:59:05;7.53;;;3.15;;
13244;SDS011;6689;53.400;12.486;2023-09-19T05:01:35;4.45;;;2.72;;
13244;SDS011;6689;53.400;12.486;2023-09-19T05:04:03;6.90;;;3.05;;
13244;SDS011;6689;53.400;12.486;2023-09-19T05:06:30;7.07;;;2.90;;
13244;SDS011;6689;53.400;12.486;2023-09-19T05:08:59;5.93;;;3.22;;
13244;SDS011;6689;53.400;12.486;2023-09-19T05:11:27;8.35;;;3.13;;
13244;SDS011;6689;53.400;12.486;2023-09-19T05:13:55;3.72;;;2.53;;
13244;SDS011;6689;53.400;12.486;2023-09-19T05:16:22;5.63;;;3.00;;
13244;SDS011;6689;53.400;12.486;2023-09-19T05:18:49;3.25;;;2.50;;
13244;SDS011;6689;53.400;12.486;2023-09-19T05:21:18;6.38;;;3.45;;
13244;SDS011;6689;53.400;12.486;2023-09-19T05:23:46;4.88;;;2.97;;
13244;SDS011;6689;53.400;12.486;2023-09-19T05:26:14;5.93;;;3.20;;
13244;SDS011;6689;53.400;12.486;2023-09-19T05:28:44;6.15;;;2.97;;
13244;SDS011;6689;53.400;12.486;2023-09-19T05:31:13;7.15;;;2.85;;
13244;SDS011;6689;53.400;12.486;2023-09-19T05:33:40;7.13;;;3.05;;
13244;SDS011;6689;53.400;12.486;2023-09-19T05:36:08;5.18;;;3.05;;
13244;SDS011;6689;53.400;12.486;2023-09-19T05:38:37;4.45;;;3.35;;
13244;SDS011;6689;53.400;12.486;2023-09-19T05:41:06;4.97;;;3.28;;
13244;SDS011;6689;53.400;12.486;2023-09-19T05:43:33;6.30;;;3.20;;
13244;SDS011;6689;53.400;12.486;2023-09-19T05:46:03;7.63;;;3.53;;
13244;SDS011;6689;53.400;12.486;2023-09-19T05:48:31;3.97;;;2.83;;
13244;SDS011;6689;53.400;12.486;2023-09-19T05:50:58;7.15;;;3.40;;
13244;SDS011;6689;53.400;12.486;2023-09-19T05:53:26;7.82;;;3.70;;
13244;SDS011;6689;53.400;12.486;2023-09-19T05:55:53;7.55;;;3.20;;
13244;SDS011;6689;53.400;12.486;2023-09-19T05:58:21;6.97;;;3.28;;
13244;SDS011;6689;53.400;12.486;2023-09-19T06:00:48;8.43;;;3.42;;
13244;SDS011;6689;53.400;12.486;2023-09-19T06:03:16;11.77;;;3.80;;
13244;SDS011;6689;53.400;12.486;2023-09-19T06:05:44;7.00;;;2.83;;
13244;SDS011;6689;53.400;12.486;2023-09-19T06:08:14;10.43;;;3.20;;
13244;SDS011;6689;53.400;12.486;2023-09-19T06:10:41;8.30;;;3.08;;
13244;SDS011;6689;53.400;12.486;2023-09-19T06:13:09;5.65;;;3.38;;
13244;SDS011;6689;53.400;12.486;2023-09-19T06:15:36;8.38;;;3.35;;
13244;SDS011;6689;53.400;12.486;2023-09-19T06:18:04;5.95;;;3.22;;
13244;SDS011;6689;53.400;12.486;2023-09-19T06:20:33;5.75;;;2.60;;
13244;SDS011;6689;53.400;12.486;2023-09-19T06:23:01;5.50;;;2.97;;
13244;SDS011;6689;53.400;12.486;2023-09-19T06:25:30;7.65;;;2.75;;
13244;SDS011;6689;53.400;12.486;2023-09-19T06:27:57;7.75;;;2.53;;
13244;SDS011;6689;53.400;12.486;2023-09-19T06:30:24;9.70;;;3.42;;
13244;SDS011;6689;53.400;12.486;2023-09-19T06:32:55;6.88;;;3.22;;
13244;SDS011;6689;53.400;12.486;2023-09-19T06:35:22;6.22;;;3.35;;
13244;SDS011;6689;53.400;12.486;2023-09-19T06:37:52;6.47;;;3.15;;
13244;SDS011;6689;53.400;12.486;2023-09-19T06:40:19;6.70;;;3.10;;
13244;SDS011;6689;53.400;12.486;2023-09-19T06:42:47;6.47;;;2.55;;
13244;SDS011;6689;53.400;12.486;2023-09-19T06:45:18;5.47;;;3.08;;
13244;SDS011;6689;53.400;12.486;2023-09-19T06:47:47;7.82;;;2.53;;
13244;SDS011;6689;53.400;12.486;2023-09-19T06:50:16;5.07;;;2.50;;
13244;SDS011;6689;53.400;12.486;2023-09-19T06:52:44;10.45;;;3.08;;
13244;SDS011;6689;53.400;12.486;2023-09-19T06:55:13;7.10;;;2.85;;
13244;SDS011;6689;53.400;12.486;2023-09-19T06:57:41;8.30;;;2.63;;
13244;SDS011;6689;53.400;12.486;2023-09-19T07:00:09;6.45;;;3.03;;
13244;SDS011;6689;53.400;12.486;2023-09-19T07:02:43;5.70;;;2.97;;
13244;SDS011;6689;53.400;12.486;2023-09-19T07:05:10;4.85;;;2.58;;
13244;SDS011;6689;53.400;12.486;2023-09-19T07:07:38;7.88;;;2.38;;
13244;SDS011;6689;53.400;12.486;2023-09-19T07:10:05;8.90;;;3.28;;
13244;SDS011;6689;53.400;12.486;2023-09-19T07:12:35;6.47;;;2.70;;
13244;SDS011;6689;53.400;12.486;2023-09-19T07:15:02;4.88;;;2.33;;
13244;SDS011;6689;53.400;12.486;2023-09-19T07:17:31;6.88;;;2.47;;
13244;SDS011;6689;53.400;12.486;2023-09-19T07:19:58;6.85;;;3.00;;
13244;SDS011;6689;53.400;12.486;2023-09-19T07:22:26;7.10;;;2.70;;
13244;SDS011;6689;53.400;12.486;2023-09-19T07:24:53;5.95;;;2.33;;
13244;SDS011;6689;53.400;12.486;2023-09-19T07:27:20;7.93;;;2.50;;
13244;SDS011;6689;53.400;12.486;2023-09-19T07:29:49;4.10;;;2.17;;
13244;SDS011;6689;53.400;12.486;2023-09-19T07:32:16;4.78;;;2.72;;
13244;SDS011;6689;53.400;12.486;2023-09-19T07:34:43;7.43;;;2.70;;
13244;SDS011;6689;53.400;12.486;2023-09-19T07:37:11;8.50;;;2.50;;
13244;SDS011;6689;53.400;12.486;2023-09-19T07:39:40;7.45;;;2.97;;
13244;SDS011;6689;53.400;12.486;2023-09-19T07:42:09;13.00;;;3.42;;
13244;SDS011;6689;53.400;12.486;2023-09-19T07:44:42;4.78;;;2.55;;
13244;SDS011;6689;53.400;12.486;2023-09-19T07:47:13;5.65;;;2.20;;
13244;SDS011;6689;53.400;12.486;2023-09-19T07:49:41;4.35;;;2.40;;
13244;SDS011;6689;53.400;12.486;2023-09-19T07:52:08;8.82;;;2.88;;
13244;SDS011;6689;53.400;12.486;2023-09-19T07:54:37;6.38;;;2.35;;
13244;SDS011;6689;53.400;12.486;2023-09-19T07:57:06;7.65;;;2.65;;
13244;SDS011;6689;53.400;12.486;2023-09-19T07:59:34;6.03;;;2.55;;
13244;SDS011;6689;53.400;12.486;2023-09-19T08:02:01;6.38;;;2.30;;
13244;SDS011;6689;53.400;12.486;2023-09-19T08:04:31;7.75;;;2.72;;
13244;SDS011;6689;53.400;12.486;2023-09-19T08:06:59;5.72;;;1.98;;
13244;SDS011;6689;53.400;12.486;2023-09-19T08:09:29;8.40;;;2.40;;
13244;SDS011;6689;53.400;12.486;2023-09-19T08:11:58;5.72;;;2.17;;
13244;SDS011;6689;53.400;12.486;2023-09-19T08:14:27;6.05;;;2.58;;
13244;SDS011;6689;53.400;12.486;2023-09-19T08:16:56;7.85;;;2.20;;
13244;SDS011;6689;53.400;12.486;2023-09-19T08:19:23;9.98;;;3.15;;
13244;SDS011;6689;53.400;12.486;2023-09-19T08:21:55;12.38;;;2.70;;
13244;SDS011;6689;53.400;12.486;2023-09-19T08:24:23;4.10;;;1.90;;
13244;SDS011;6689;53.400;12.486;2023-09-19T08:26:53;7.05;;;2.38;;
13244;SDS011;6689;53.400;12.486;2023-09-19T08:29:21;4.60;;;2.60;;
13244;SDS011;6689;53.400;12.486;2023-09-19T08:31:53;7.63;;;2.40;;
13244;SDS011;6689;53.400;12.486;2023-09-19T08:34:21;8.95;;;2.33;;
13244;SDS011;6689;53.400;12.486;2023-09-19T08:36:49;6.45;;;1.95;;
13244;SDS011;6689;53.400;12.486;2023-09-19T08:39:23;7.80;;;2.78;;
13244;SDS011;6689;53.400;12.486;2023-09-19T08:41:56;6.65;;;2.20;;
13244;SDS011;6689;53.400;12.486;2023-09-19T08:44:24;5.25;;;1.73;;
13244;SDS011;6689;53.400;12.486;2023-09-19T08:46:53;9.18;;;2.25;;
13244;SDS011;6689;53.400;12.486;2023-09-19T08:49:27;5.22;;;2.20;;
13244;SDS011;6689;53.400;12.486;2023-09-19T08:52:05;9.80;;;3.00;;
13244;SDS011;6689;53.400;12.486;2023-09-19T08:54:38;4.78;;;2.03;;
13244;SDS011;6689;53.400;12.486;2023-09-19T08:57:08;5.53;;;1.70;;
13244;SDS011;6689;53.400;12.486;2023-09-19T08:59:37;6.60;;;2.00;;
13244;SDS011;6689;53.400;12.486;2023-09-19T09:02:08;8.75;;;2.67;;
13244;SDS011;6689;53.400;12.486;2023-09-19T09:04:41;9.75;;;2.58;;
13244;SDS011;6689;53.400;12.486;2023-09-19T09:07:10;4.65;;;2.05;;
13244;SDS011;6689;53.400;12.486;2023-09-19T09:09:40;5.68;;;2.22;;
13244;SDS011;6689;53.400;12.486;2023-09-19T09:12:10;8.07;;;1.88;;
13244;SDS011;6689;53.400;12.486;2023-09-19T09:14:39;6.00;;;2.17;;
13244;SDS011;6689;53.400;12.486;2023-09-19T09:17:06;5.82;;;2.65;;
13244;SDS011;6689;53.400;12.486;2023-09-19T09:19:34;5.05;;;2.17;;
13244;SDS011;6689;53.400;12.486;2023-09-19T09:22:06;12.07;;;2.38;;
13244;SDS011;6689;53.400;12.486;2023-09-19T09:24:34;4.70;;;2.47;;
13244;SDS011;6689;53.400;12.486;2023-09-19T09:27:04;9.50;;;2.60;;
13244;SDS011;6689;53.400;12.486;2023-09-19T09:29:40;6.15;;;2.95;;
13244;SDS011;6689;53.400;12.486;2023-09-19T09:32:19;6.47;;;2.60;;
13244;SDS011;6689;53.400;12.486;2023-09-19T09:34:47;6.93;;;2.20;;
13244;SDS011;6689;53.400;12.486;2023-09-19T09:37:17;8.95;;;2.13;;
13244;SDS011;6689;53.400;12.486;2023-09-19T09:39:54;10.68;;;2.60;;
13244;SDS011;6689;53.400;12.486;2023-09-19T09:42:34;6.93;;;3.03;;
13244;SDS011;6689;53.400;12.486;2023-09-19T09:45:14;7.03;;;2.53;;
13244;SDS011;6689;53.400;12.486;2023-09-19T09:47:43;3.50;;;1.98;;
13244;SDS011;6689;53.400;12.486;2023-09-19T09:50:27;7.75;;;2.33;;
13244;SDS011;6689;53.400;12.486;2023-09-19T09:53:05;8.10;;;2.45;;
13244;SDS011;6689;53.400;12.486;2023-09-19T09:56:02;9.02;;;2.55;;
13244;SDS011;6689;53.400;12.486;2023-09-19T09:58:33;5.68;;;2.20;;
13244;SDS011;6689;53.400;12.486;2023-09-19T10:01:02;7.85;;;2.85;;
13244;SDS011;6689;53.400;12.486;2023-09-19T10:03:35;4.90;;;2.17;;
13244;SDS011;6689;53.400;12.486;2023-09-19T10:06:07;9.02;;;2.15;;
13244;SDS011;6689;53.400;12.486;2023-09-19T10:09:00;6.53;;;1.77;;
13244;SDS011;6689;53.400;12.486;2023-09-19T10:11:40;5.75;;;2.15;;
13244;SDS011;6689;53.400;12.486;2023-09-19T10:14:14;8.30;;;2.47;;
13244;SDS011;6689;53.400;12.486;2023-09-19T10:16:45;6.60;;;2.45;;
13244;SDS011;6689;53.400;12.486;2023-09-19T10:19:15;8.10;;;2.63;;
13244;SDS011;6689;53.400;12.486;2023-09-19T10:21:47;5.30;;;2.80;;
13244;SDS011;6689;53.400;12.486;2023-09-19T10:24:16;5.28;;;2.22;;
13244;SDS011;6689;53.400;12.486;2023-09-19T10:26:45;5.35;;;2.20;;
13244;SDS011;6689;53.400;12.486;2023-09-19T10:29:18;4.90;;;2.45;;
13244;SDS011;6689;53.400;12.486;2023-09-19T10:31:47;7.75;;;2.42;;
13244;SDS011;6689;53.400;12.486;2023-09-19T10:34:15;5.90;;;2.20;;
13244;SDS011;6689;53.400;12.486;2023-09-19T10:36:45;7.38;;;2.15;;
13244;SDS011;6689;53.400;12.486;2023-09-19T10:39:14;5.25;;;2.53;;
13244;SDS011;6689;53.400;12.486;2023-09-19T10:41:47;7.93;;;2.75;;
13244;SDS011;6689;53.400;12.486;2023-09-19T10:44:23;8.80;;;2.60;;
13244;SDS011;6689;53.400;12.486;2023-09-19T10:46:51;5.40;;;2.50;;
13244;SDS011;6689;53.400;12.486;2023-09-19T10:49:19;7.60;;;2.50;;
13244;SDS011;6689;53.400;12.486;2023-09-19T10:51:48;6.30;;;2.10;;
13244;SDS011;6689;53.400;12.486;2023-09-19T10:54:20;5.85;;;2.50;;
13244;SDS011;6689;53.400;12.486;2023-09-19T10:56:52;9.43;;;2.55;;
13244;SDS011;6689;53.400;12.486;2023-09-19T10:59:25;11.50;;;2.35;;
13244;SDS011;6689;53.400;12.486;2023-09-19T11:01:59;6.85;;;2.35;;
13244;SDS011;6689;53.400;12.486;2023-09-19T11:04:42;8.27;;;2.65;;
13244;SDS011;6689;53.400;12.486;2023-09-19T11:07:13;6.88;;;2.60;;
13244;SDS011;6689;53.400;12.486;2023-09-19T11:09:48;8.60;;;2.35;;
13244;SDS011;6689;53.400;12.486;2023-09-19T11:24:30;6.43;;;2.30;;
13244;SDS011;6689;53.400;12.486;2023-09-19T11:27:10;7.75;;;2.83;;
13244;SDS011;6689;53.400;12.486;2023-09-19T11:29:42;7.95;;;2.17;;
13244;SDS011;6689;53.400;12.486;2023-09-19T11:32:09;9.55;;;2.50;;
13244;SDS011;6689;53.400;12.486;2023-09-19T11:34:41;5.60;;;2.30;;
13244;SDS011;6689;53.400;12.486;2023-09-19T11:40:37;6.20;;;2.30;;
13244;SDS011;6689;53.400;12.486;2023-09-19T11:43:27;6.28;;;2.20;;
13244;SDS011;6689;53.400;12.486;2023-09-19T11:46:14;3.75;;;2.20;;
13244;SDS011;6689;53.400;12.486;2023-09-19T11:48:47;4.47;;;2.50;;
13244;SDS011;6689;53.400;12.486;2023-09-19T11:51:16;8.00;;;2.92;;
13244;SDS011;6689;53.400;12.486;2023-09-19T11:53:53;4.32;;;2.35;;
13244;SDS011;6689;53.400;12.486;2023-09-19T11:56:22;7.05;;;2.13;;
13244;SDS011;6689;53.400;12.486;2023-09-19T11:58:53;9.27;;;2.50;;
13244;SDS011;6689;53.400;12.486;2023-09-19T12:01:22;10.38;;;3.40;;
13244;SDS011;6689;53.400;12.486;2023-09-19T12:03:54;7.90;;;2.50;;
13244;SDS011;6689;53.400;12.486;2023-09-19T12:06:23;9.65;;;3.75;;
13244;SDS011;6689;53.400;12.486;2023-09-19T12:08:51;11.93;;;1.83;;
13244;SDS011;6689;53.400;12.486;2023-09-19T12:11:22;7.50;;;2.58;;
13244;SDS011;6689;53.400;12.486;2023-09-19T12:13:50;5.53;;;2.35;;
13244;SDS011;6689;53.400;12.486;2023-09-19T12:16:19;4.70;;;2.10;;
13244;SDS011;6689;53.400;12.486;2023-09-19T12:18:48;6.07;;;2.30;;
13244;SDS011;6689;53.400;12.486;2023-09-19T12:21:22;6.88;;;1.73;;
13244;SDS011;6689;53.400;12.486;2023-09-19T12:24:06;5.38;;;2.13;;
13244;SDS011;6689;53.400;12.486;2023-09-19T12:26:40;4.95;;;2.25;;
13244;SDS011;6689;53.400;12.486;2023-09-19T12:29:12;8.20;;;2.55;;
13244;SDS011;6689;53.400;12.486;2023-09-19T12:31:49;6.20;;;1.90;;
13244;SDS011;6689;53.400;12.486;2023-09-19T12:34:19;7.45;;;2.05;;
13244;SDS011;6689;53.400;12.486;2023-09-19T12:36:47;5.28;;;2.25;;
13244;SDS011;6689;53.400;12.486;2023-09-19T12:39:24;6.40;;;2.45;;
13244;SDS011;6689;53.400;12.486;2023-09-19T12:41:53;5.95;;;1.83;;
13244;SDS011;6689;53.400;12.486;2023-09-19T12:44:21;5.78;;;2.08;;
13244;SDS011;6689;53.400;12.486;2023-09-19T12:46:49;6.45;;;1.95;;
13244;SDS011;6689;53.400;12.486;2023-09-19T12:49:20;4.88;;;1.70;;
13244;SDS011;6689;53.400;12.486;2023-09-19T12:51:48;5.18;;;2.20;;
13244;SDS011;6689;53.400;12.486;2023-09-19T12:54:23;6.13;;;1.92;;
13244;SDS011;6689;53.400;12.486;2023-09-19T12:56:51;7.13;;;1.95;;
13244;SDS011;6689;53.400;12.486;2023-09-19T12:59:27;7.65;;;2.53;;
13244;SDS011;6689;53.400;12.486;2023-09-19T13:02:03;10.40;;;1.67;;
13244;SDS011;6689;53.400;12.486;2023-09-19T13:04:32;6.78;;;1.98;;
13244;SDS011;6689;53.400;12.486;2023-09-19T13:07:05;5.47;;;2.30;;
13244;SDS011;6689;53.400;12.486;2023-09-19T13:09:34;4.97;;;1.55;;
13244;SDS011;6689;53.400;12.486;2023-09-19T13:12:05;6.07;;;1.80;;
13244;SDS011;6689;53.400;12.486;2023-09-19T13:15:06;9.10;;;2.10;;
13244;SDS011;6689;53.400;12.486;2023-09-19T13:17:45;7.40;;;1.73;;
13244;SDS011;6689;53.400;12.486;2023-09-19T13:20:23;7.88;;;2.50;;
13244;SDS011;6689;53.400;12.486;2023-09-19T13:23:04;6.20;;;2.33;;
13244;SDS011;6689;53.400;12.486;2023-09-19T13:25:35;6.45;;;1.80;;
13244;SDS011;6689;53.400;12.486;2023-09-19T13:28:06;5.05;;;2.15;;
13244;SDS011;6689;53.400;12.486;2023-09-19T13:30:36;4.38;;;2.00;;
13244;SDS011;6689;53.400;12.486;2023-09-19T13:33:08;8.88;;;2.22;;
13244;SDS011;6689;53.400;12.486;2023-09-19T13:35:36;7.15;;;1.90;;
13244;SDS011;6689;53.400;12.486;2023-09-19T13:38:06;6.28;;;2.28;;
13244;SDS011;6689;53.400;12.486;2023-09-19T13:40:36;10.30;;;2.20;;
13244;SDS011;6689;53.400;12.486;2023-09-19T13:43:04;5.47;;;2.08;;
13244;SDS011;6689;53.400;12.486;2023-09-19T13:45:33;4.28;;;2.05;;
13244;SDS011;6689;53.400;12.486;2023-09-19T13:48:01;8.25;;;2.03;;
13244;SDS011;6689;53.400;12.486;2023-09-19T13:50:29;5.93;;;2.20;;
13244;SDS011;6689;53.400;12.486;2023-09-19T13:52:56;4.78;;;1.63;;
13244;SDS011;6689;53.400;12.486;2023-09-19T13:55:25;7.28;;;2.00;;
13244;SDS011;6689;53.400;12.486;2023-09-19T13:57:55;6.28;;;2.08;;
13244;SDS011;6689;53.400;12.486;2023-09-19T14:00:24;6.13;;;2.10;;
13244;SDS011;6689;53.400;12.486;2023-09-19T14:02:54;6.60;;;1.98;;
13244;SDS011;6689;53.400;12.486;2023-09-19T14:05:22;5.50;;;1.70;;
13244;SDS011;6689;53.400;12.486;2023-09-19T14:07:53;6.22;;;2.00;;
13244;SDS011;6689;53.400;12.486;2023-09-19T14:10:21;4.60;;;2.55;;
13244;SDS011;6689;53.400;12.486;2023-09-19T14:12:48;12.43;;;2.50;;
13244;SDS011;6689;53.400;12.486;2023-09-19T14:15:15;10.68;;;2.40;;
13244;SDS011;6689;53.400;12.486;2023-09-19T14:17:44;4.07;;;1.90;;
13244;SDS011;6689;53.400;12.486;2023-09-19T14:20:11;4.93;;;2.05;;
13244;SDS011;6689;53.400;12.486;2023-09-19T14:22:40;6.45;;;2.10;;
13244;SDS011;6689;53.400;12.486;2023-09-19T14:25:10;4.45;;;1.70;;
13244;SDS011;6689;53.400;12.486;2023-09-19T14:27:38;8.07;;;2.17;;
13244;SDS011;6689;53.400;12.486;2023-09-19T14:30:07;6.55;;;1.70;;
13244;SDS011;6689;53.400;12.486;2023-09-19T14:32:35;6.03;;;2.08;;
13244;SDS011;6689;53.400;12.486;2023-09-19T14:35:05;5.57;;;1.83;;
13244;SDS011;6689;53.400;12.486;2023-09-19T14:37:35;3.08;;;1.58;;
13244;SDS011;6689;53.400;12.486;2023-09-19T14:40:04;6.72;;;2.28;;
13244;SDS011;6689;53.400;12.486;2023-09-19T14:42:34;5.55;;;2.28;;
13244;SDS011;6689;53.400;12.486;2023-09-19T14:45:04;6.72;;;1.98;;
13244;SDS011;6689;53.400;12.486;2023-09-19T14:47:32;10.05;;;2.30;;
13244;SDS011;6689;53.400;12.486;2023-09-19T14:50:01;5.70;;;2.28;;
13244;SDS011;6689;53.400;12.486;2023-09-19T14:52:32;4.60;;;2.08;;
13244;SDS011;6689;53.400;12.486;2023-09-19T14:55:04;6.93;;;2.53;;
13244;SDS011;6689;53.400;12.486;2023-09-19T14:57:34;7.55;;;2.47;;
13244;SDS011;6689;53.400;12.486;2023-09-19T15:00:05;7.63;;;2.55;;
13244;SDS011;6689;53.400;12.486;2023-09-19T15:02:37;6.88;;;2.50;;
13244;SDS011;6689;53.400;12.486;2023-09-19T15:05:06;8.80;;;2.97;;
13244;SDS011;6689;53.400;12.486;2023-09-19T15:07:36;6.60;;;2.40;;
13244;SDS011;6689;53.400;12.486;2023-09-19T15:10:04;4.50;;;2.00;;
13244;SDS011;6689;53.400;12.486;2023-09-19T15:12:34;8.02;;;2.60;;
13244;SDS011;6689;53.400;12.486;2023-09-19T15:15:03;9.30;;;2.75;;
13244;SDS011;6689;53.400;12.486;2023-09-19T15:17:33;7.07;;;2.40;;
13244;SDS011;6689;53.400;12.486;2023-09-19T15:20:01;6.70;;;2.33;;
13244;SDS011;6689;53.400;12.486;2023-09-19T15:22:31;8.35;;;2.38;;